createdAt,value
2023-03-11T10:54:21.950Z,49.98
2023-03-11T10:55:22.962Z,50.01
2023-03-11T10:56:22.915Z,51.24
2023-03-11T10:57:22.930Z,51.14
2023-03-11T10:58:22.992Z,52.27
2023-03-11T10:59:22.968Z,51.34
2023-03-11T11:00:22.889Z,51.14
2023-03-11T11:01:22.910Z,51.06
2023-03-11T11:02:22.862Z,52.69
2023-03-11T11:03:22.896Z,53.35
2023-03-11T11:04:22.893Z,51.35
2023-03-11T11:05:22.826Z,52.54
2023-03-11T11:06:22.844Z,50.79
2023-03-11T11:07:22.779Z,49.99
2023-03-11T11:08:22.866Z,49.60
2023-03-11T11:09:25.085Z,51.79
2023-03-11T11:10:22.841Z,51.09
2023-03-11T11:11:22.734Z,51.55
2023-03-11T11:12:22.819Z,52.76
2023-03-11T11:13:22.978Z,54.07
2023-03-11T11:14:22.814Z,51.61
2023-03-11T11:15:22.698Z,49.88
2023-03-11T11:16:22.753Z,50.62
2023-03-11T11:17:22.640Z,50.13
2023-03-11T11:18:22.724Z,50.16
2023-03-11T11:19:22.650Z,50.08
2023-03-11T11:20:22.623Z,50.08
2023-03-11T11:21:22.635Z,52.22
2023-03-11T11:22:22.637Z,52.09
2023-03-11T11:23:22.724Z,52.19
2023-03-11T11:24:22.601Z,50.44
2023-03-11T11:25:22.677Z,51.26
2023-03-11T11:26:22.915Z,50.03
2023-03-11T11:27:22.676Z,50.11
2023-03-11T11:28:22.584Z,48.05
2023-03-11T11:29:22.643Z,48.24
2023-03-11T11:30:22.470Z,48.24
2023-03-11T11:31:22.471Z,49.14
2023-03-11T11:32:22.610Z,48.85
2023-03-11T11:33:22.526Z,49.16
2023-03-11T11:34:23.192Z,49.90
2023-03-11T11:35:22.687Z,51.30
2023-03-11T11:36:22.507Z,49.26
2023-03-11T11:37:22.406Z,48.03
2023-03-11T11:38:22.498Z,48.34
2023-03-11T11:39:22.344Z,47.91
2023-03-11T11:40:22.470Z,46.24
2023-03-11T11:41:22.338Z,48.07
2023-03-11T11:42:22.356Z,47.76
2023-03-11T11:43:22.380Z,47.04
2023-03-11T11:44:22.488Z,47.96
2023-03-11T11:45:22.345Z,49.17
2023-03-11T11:46:22.538Z,47.86
2023-03-11T11:47:22.317Z,46.55
2023-03-11T11:48:22.285Z,45.34
2023-03-11T11:49:22.219Z,47.72
2023-03-11T11:50:22.231Z,47.62
2023-03-11T11:51:22.329Z,48.75
2023-03-11T11:52:22.252Z,48.83
2023-03-11T11:53:22.149Z,47.67
2023-03-11T11:54:22.168Z,48.09
2023-03-11T11:55:22.170Z,48.91
2023-03-11T11:56:22.156Z,46.57
2023-03-11T11:57:22.121Z,47.13
2023-03-11T11:58:22.170Z,47.85
2023-03-11T11:59:22.345Z,50.42
2023-03-11T12:00:22.196Z,47.31
2023-03-11T12:01:22.035Z,48.57
2023-03-11T12:02:22.226Z,48.16
2023-03-11T12:03:22.391Z,49.49
2023-03-11T12:04:22.177Z,48.67
2023-03-11T12:05:22.050Z,49.52
2023-03-11T12:06:21.970Z,49.93
2023-03-11T12:07:21.995Z,48.41
2023-03-11T12:08:22.032Z,49.66
2023-03-11T12:09:21.980Z,48.45
2023-03-11T12:10:24.018Z,48.45
2023-03-11T12:11:22.006Z,50.92
2023-03-11T12:12:21.894Z,52.37
2023-03-11T12:13:22.085Z,51.03
2023-03-11T12:14:22.155Z,50.82
2023-03-11T12:15:22.015Z,51.23
2023-03-11T12:16:21.839Z,50.31
2023-03-11T12:17:21.825Z,50.38
2023-03-11T12:18:21.899Z,50.41
2023-03-11T12:19:21.827Z,50.59
2023-03-11T12:20:21.832Z,50.90
2023-03-11T12:21:21.805Z,50.08
2023-03-11T12:22:21.859Z,50.28
2023-03-11T12:23:21.799Z,50.26
2023-03-11T12:24:21.754Z,50.36
2023-03-11T12:25:21.731Z,49.66
2023-03-11T12:26:21.746Z,49.17
2023-03-11T12:27:21.684Z,50.12
2023-03-11T12:28:21.934Z,51.98
2023-03-11T12:29:21.686Z,51.75
2023-03-11T12:30:21.703Z,50.31
2023-03-11T12:31:21.758Z,49.07
2023-03-11T12:32:21.672Z,51.09
2023-03-11T12:33:21.766Z,51.78
2023-03-11T12:34:21.600Z,51.65
2023-03-11T12:35:21.673Z,52.14
2023-03-11T12:36:21.862Z,51.79
2023-03-11T12:37:21.679Z,49.81
2023-03-11T12:38:21.601Z,50.56
2023-03-11T12:39:21.692Z,51.35
2023-03-11T12:40:21.502Z,49.11
2023-03-11T12:41:21.700Z,49.52
2023-03-11T12:42:21.561Z,50.99
2023-03-11T12:43:21.558Z,48.34
2023-03-11T12:44:21.460Z,50.54
2023-03-11T12:45:21.472Z,52.22
2023-03-11T12:46:21.645Z,52.63
2023-03-11T12:47:21.449Z,50.28
2023-03-11T12:48:21.518Z,52.63
2023-03-11T12:49:21.512Z,54.48
2023-03-11T12:50:21.392Z,54.25
2023-03-11T12:51:21.401Z,50.36
2023-03-11T12:52:21.371Z,50.08
2023-03-11T12:53:21.395Z,50.82
2023-03-11T12:54:21.420Z,50.51
2023-03-11T12:55:21.392Z,51.34
2023-03-11T12:56:21.553Z,51.75
2023-03-11T12:57:21.370Z,51.83
2023-03-11T12:58:23.792Z,52.55
2023-03-11T12:59:21.438Z,55.30
2023-03-11T13:00:21.269Z,56.46
2023-03-11T13:01:21.326Z,57.91
2023-03-11T13:02:21.215Z,57.76
2023-03-11T13:03:21.233Z,59.55
2023-03-11T13:04:21.319Z,60.27
2023-03-11T13:05:21.217Z,61.10
2023-03-11T13:06:21.251Z,61.20
2023-03-11T13:07:21.208Z,60.99
2023-03-11T13:08:21.228Z,61.30
2023-03-11T13:09:21.152Z,60.37
2023-03-11T13:10:21.296Z,60.78
2023-03-11T13:11:21.085Z,61.22
2023-03-11T13:12:21.231Z,61.64
2023-03-11T13:13:21.090Z,62.23
2023-03-11T13:14:21.201Z,61.51
2023-03-11T13:15:21.381Z,62.85
2023-03-11T13:16:21.249Z,62.44
2023-03-11T13:17:21.041Z,62.44
2023-03-11T13:18:21.011Z,61.61
2023-03-11T13:19:21.063Z,60.86
2023-03-11T13:20:21.047Z,62.02
2023-03-11T13:21:20.951Z,61.58
2023-03-11T13:22:20.960Z,62.30
2023-03-11T13:23:21.091Z,61.58
2023-03-11T13:24:20.952Z,60.27
2023-03-11T13:25:21.004Z,61.40
2023-03-11T13:26:20.934Z,62.41
2023-03-11T13:27:20.918Z,61.58
2023-03-11T13:28:20.901Z,61.45
2023-03-11T13:29:20.852Z,61.66
2023-03-11T13:30:20.965Z,59.72
2023-03-11T13:31:20.887Z,60.03
2023-03-11T13:32:20.862Z,60.75
2023-03-11T13:33:21.073Z,60.14
2023-03-11T13:34:20.805Z,61.07
2023-03-11T13:35:20.884Z,60.00
2023-03-11T13:36:20.948Z,59.10
2023-03-11T13:37:20.783Z,60.68
2023-03-11T13:38:20.748Z,60.99
2023-03-11T13:39:20.699Z,61.99
2023-03-11T13:40:20.825Z,60.83
2023-03-11T13:41:20.752Z,59.90
2023-03-11T13:42:20.878Z,61.22
2023-03-11T13:43:20.690Z,60.60
2023-03-11T13:44:20.675Z,61.60
2023-03-11T13:45:21.056Z,59.88
2023-03-11T13:46:20.617Z,60.60
2023-03-11T13:47:20.733Z,59.39
2023-03-11T13:48:20.584Z,59.52
2023-03-11T13:49:20.569Z,60.03
2023-03-11T13:50:20.585Z,60.86
2023-03-11T13:51:20.643Z,60.44
2023-03-11T13:52:20.581Z,60.55
2023-03-11T13:53:20.580Z,60.14
2023-03-11T13:54:20.590Z,60.96
2023-03-11T13:55:20.572Z,61.99
2023-03-11T13:56:20.573Z,62.20
2023-03-11T13:57:20.730Z,61.99
2023-03-11T13:58:20.582Z,60.44
2023-03-11T13:59:20.485Z,62.20
2023-03-11T14:00:20.532Z,62.30
2023-03-11T14:01:20.491Z,60.14
2023-03-11T14:02:20.583Z,62.10
2023-03-11T14:03:20.408Z,61.17
2023-03-11T14:04:20.678Z,61.48
2023-03-11T14:05:20.497Z,60.27
2023-03-11T14:06:20.432Z,62.26
2023-03-11T14:07:20.468Z,62.77
2023-03-11T14:08:20.569Z,62.26
2023-03-11T14:09:20.315Z,62.29
2023-03-11T14:10:20.382Z,61.77
2023-03-11T14:11:20.413Z,61.28
2023-03-11T14:12:20.574Z,61.80
2023-03-11T14:13:20.448Z,62.11
2023-03-11T14:14:20.269Z,62.94
2023-03-11T14:15:20.512Z,63.12
2023-03-11T14:16:20.345Z,62.49
2023-03-11T14:17:20.237Z,60.97
2023-03-11T14:18:20.300Z,62.52
2023-03-11T14:19:20.417Z,62.11
2023-03-11T14:20:20.257Z,61.38
2023-03-11T14:21:20.435Z,61.67
2023-03-11T14:22:20.162Z,62.70
2023-03-11T14:23:20.145Z,61.22
2023-03-11T14:24:20.270Z,61.54
2023-03-11T14:25:20.228Z,60.50
2023-03-11T14:26:20.263Z,61.82
2023-03-11T14:27:20.117Z,60.99
2023-03-11T14:28:20.066Z,61.22
2023-03-11T14:29:20.098Z,59.91
2023-03-11T14:30:20.100Z,61.85
2023-03-11T14:31:20.056Z,61.33
2023-03-11T14:32:20.055Z,59.16
2023-03-11T14:33:20.110Z,59.99
2023-03-11T14:34:20.261Z,61.02
2023-03-11T14:35:20.192Z,60.30
2023-03-11T14:36:19.929Z,60.91
2023-03-11T14:37:20.100Z,59.57
2023-03-11T14:38:19.942Z,60.91
2023-03-11T14:39:19.931Z,60.09
2023-03-11T14:40:20.024Z,60.50
2023-03-11T14:41:20.180Z,60.68
2023-03-11T14:42:19.946Z,59.03
2023-03-11T14:43:19.834Z,59.75
2023-03-11T14:44:19.933Z,59.55
2023-03-11T14:45:20.137Z,58.74
2023-03-11T14:46:20.006Z,60.40
2023-03-11T14:47:19.818Z,61.64
2023-03-11T14:48:19.794Z,62.46
2023-03-11T14:49:19.788Z,61.95
2023-03-11T14:50:20.013Z,60.19
2023-03-11T14:51:19.781Z,60.40
2023-03-11T14:52:19.756Z,60.78
2023-03-11T14:53:19.720Z,59.03
2023-03-11T14:54:19.725Z,59.64
2023-03-11T14:55:19.880Z,60.06
2023-03-11T14:56:19.695Z,59.57
2023-03-11T14:57:19.754Z,60.30
2023-03-11T14:58:19.942Z,59.47
2023-03-11T14:59:19.782Z,59.05
2023-03-11T15:00:19.673Z,59.99
2023-03-11T15:01:19.676Z,60.19
2023-03-11T15:02:19.591Z,62.05
2023-03-11T15:03:19.839Z,61.54
2023-03-11T15:04:21.287Z,60.30
2023-03-11T15:05:19.840Z,60.50
2023-03-11T15:06:19.555Z,60.30
2023-03-11T15:07:19.560Z,60.81
2023-03-11T15:08:19.498Z,61.74
2023-03-11T15:09:19.489Z,61.64
2023-03-11T15:10:19.609Z,62.26
2023-03-11T15:11:19.509Z,62.65
2023-03-11T15:12:19.603Z,61.40
2023-03-11T15:13:19.470Z,61.33
2023-03-11T15:14:19.419Z,62.16
2023-03-11T15:15:19.460Z,61.57
2023-03-11T15:16:19.469Z,62.49
2023-03-11T15:17:33.803Z,62.08
2023-03-11T15:18:19.616Z,62.91
2023-03-11T15:19:20.045Z,62.18
2023-03-11T15:20:19.609Z,62.70
2023-03-11T15:21:19.445Z,61.87
2023-03-11T15:22:19.361Z,62.01
2023-03-11T15:23:19.318Z,63.32
2023-03-11T15:24:19.286Z,63.43
2023-03-11T15:25:19.301Z,63.84
2023-03-11T15:26:19.383Z,62.42
2023-03-11T15:27:19.272Z,62.63
2023-03-11T15:28:19.285Z,63.35
2023-03-11T15:29:19.435Z,64.18
2023-03-11T15:30:19.214Z,64.39
2023-03-11T15:31:19.332Z,63.35
2023-03-11T15:32:19.398Z,64.70
2023-03-11T15:33:19.446Z,63.76
2023-03-11T15:34:19.283Z,64.21
2023-03-11T15:35:19.244Z,64.52
2023-03-11T15:36:19.289Z,63.17
2023-03-11T15:37:19.182Z,63.51
2023-03-11T15:38:21.013Z,62.68
2023-03-11T15:39:19.109Z,63.72
2023-03-11T15:40:19.067Z,63.20
2023-03-11T15:41:19.120Z,63.62
2023-03-11T15:42:19.369Z,64.03
2023-03-11T15:43:19.121Z,63.62
2023-03-11T15:44:20.735Z,62.99
2023-03-11T15:45:19.017Z,65.38
2023-03-11T15:46:19.019Z,65.59
2023-03-11T15:47:19.034Z,64.55
2023-03-11T15:48:18.996Z,64.34
2023-03-11T15:49:20.144Z,64.45
2023-03-11T15:50:24.696Z,65.17
2023-03-11T15:51:19.138Z,64.97
2023-03-11T15:52:19.030Z,64.06
2023-03-11T15:53:18.940Z,65.10
2023-03-11T15:54:18.960Z,64.69
2023-03-11T15:55:18.882Z,65.31
2023-03-11T15:56:18.878Z,65.00
2023-03-11T15:57:18.917Z,65.41
2023-03-11T15:58:18.963Z,66.21
2023-03-11T15:59:19.146Z,66.52
2023-03-11T16:00:18.841Z,64.58
2023-03-11T16:01:18.832Z,67.07
2023-03-11T16:02:18.871Z,65.83
2023-03-11T16:03:18.822Z,64.27
2023-03-11T16:04:19.150Z,65.93
2023-03-11T16:05:18.846Z,65.62
2023-03-11T16:06:18.779Z,65.93
2023-03-11T16:07:32.789Z,65.72
2023-03-11T16:08:19.060Z,66.35
2023-03-11T16:09:18.785Z,66.24
2023-03-11T16:10:18.675Z,65.20
2023-03-11T16:11:18.841Z,64.27
2023-03-11T16:12:18.646Z,65.34
2023-03-11T16:13:18.722Z,65.75
2023-03-11T16:14:18.648Z,65.65
2023-03-11T16:15:18.610Z,65.03
2023-03-11T16:16:18.742Z,66.99
2023-03-11T16:17:18.609Z,66.58
2023-03-11T16:18:18.742Z,65.55
2023-03-11T16:19:18.786Z,67.10
2023-03-11T16:20:18.688Z,65.03
2023-03-11T16:21:18.816Z,64.92
2023-03-11T16:22:18.638Z,66.06
2023-03-11T16:23:18.845Z,66.89
2023-03-11T16:24:18.649Z,66.72
2023-03-11T16:25:18.523Z,65.78
2023-03-11T16:26:18.505Z,65.99
2023-03-11T16:27:18.494Z,66.51
2023-03-11T16:28:18.479Z,66.20
2023-03-11T16:29:19.897Z,65.99
2023-03-11T16:30:18.644Z,65.47
2023-03-11T16:31:18.529Z,65.78
2023-03-11T16:32:18.460Z,65.89
2023-03-11T16:33:18.507Z,67.03
2023-03-11T16:34:18.465Z,66.72
2023-03-11T16:35:18.482Z,67.44
2023-03-11T16:36:18.355Z,65.99
2023-03-11T16:37:18.301Z,66.30
2023-03-11T16:38:18.332Z,66.72
2023-03-11T16:39:18.356Z,66.61
2023-03-11T16:40:18.344Z,67.86
2023-03-11T16:41:18.312Z,67.44
2023-03-11T16:42:18.331Z,66.41
2023-03-11T16:43:18.236Z,67.27
2023-03-11T16:44:18.400Z,67.68
2023-03-11T16:45:18.242Z,67.68
2023-03-11T16:46:18.442Z,67.47
2023-03-11T16:47:18.203Z,67.89
2023-03-11T16:48:18.335Z,67.27
2023-03-11T16:49:18.251Z,66.44
2023-03-11T16:50:18.143Z,65.70
2023-03-11T16:51:18.162Z,66.22
2023-03-11T16:52:18.142Z,66.64
2023-03-11T16:53:18.180Z,66.33
2023-03-11T16:54:18.327Z,66.85
2023-03-11T16:55:18.107Z,66.75
2023-03-11T16:56:18.114Z,66.22
2023-03-11T16:57:18.101Z,67.09
2023-03-11T16:58:18.402Z,66.05
2023-03-11T16:59:18.246Z,65.11
2023-03-11T17:00:18.112Z,66.64
2023-03-11T17:01:18.213Z,67.16
2023-03-11T17:02:17.979Z,65.84
2023-03-11T17:03:21.390Z,66.05
2023-03-11T17:04:18.094Z,66.44
2023-03-11T17:05:18.107Z,66.67
2023-03-11T17:06:17.996Z,65.63
2023-03-11T17:07:17.909Z,65.73
2023-03-11T17:08:18.027Z,66.78
2023-03-11T17:09:17.996Z,66.78
2023-03-11T17:10:17.983Z,68.13
2023-03-11T17:11:17.874Z,67.09
2023-03-11T17:12:18.063Z,67.50
2023-03-11T17:13:19.188Z,68.02
2023-03-11T17:14:17.902Z,67.82
2023-03-11T17:15:17.834Z,67.50
2023-03-11T17:16:18.119Z,67.30
2023-03-11T17:17:17.842Z,68.23
2023-03-11T17:18:17.811Z,67.61
2023-03-11T17:19:17.776Z,67.82
2023-03-11T17:20:19.364Z,68.02
2023-03-11T17:21:17.748Z,68.13
2023-03-11T17:22:17.775Z,67.61
2023-03-11T17:23:17.766Z,68.44
2023-03-11T17:24:17.687Z,69.17
2023-03-11T17:25:17.872Z,69.89
2023-03-11T17:26:17.712Z,69.17
2023-03-11T17:27:17.632Z,68.75
2023-03-11T17:28:17.713Z,68.02
2023-03-11T17:29:17.642Z,67.50
2023-03-11T17:30:30.495Z,67.82
2023-03-11T17:31:17.697Z,69.06
2023-03-11T17:32:17.869Z,67.50
2023-03-11T17:33:17.844Z,67.30
2023-03-11T17:34:17.569Z,66.88
2023-03-11T17:35:17.562Z,67.61
2023-03-11T17:36:17.537Z,68.02
2023-03-11T17:37:17.468Z,67.40
2023-03-11T17:38:17.576Z,66.88
2023-03-11T17:39:17.521Z,66.78
2023-03-11T17:40:17.665Z,66.99
2023-03-11T17:41:17.538Z,68.13
2023-03-11T17:42:17.420Z,69.48
2023-03-11T17:43:17.565Z,68.88
2023-03-11T17:44:17.423Z,67.92
2023-03-11T17:45:17.532Z,68.88
2023-03-11T17:46:17.414Z,68.78
2023-03-11T17:47:17.362Z,67.85
2023-03-11T17:48:17.452Z,67.95
2023-03-11T17:49:17.323Z,70.03
2023-03-11T17:50:17.385Z,68.47
2023-03-11T17:51:17.552Z,68.68
2023-03-11T17:52:17.382Z,69.61
2023-03-11T17:53:17.539Z,68.78
2023-03-11T17:54:17.363Z,69.51
2023-03-11T17:55:17.365Z,69.09
2023-03-11T17:56:17.229Z,69.82
2023-03-11T17:57:17.234Z,69.09
2023-03-11T17:58:17.270Z,68.57
2023-03-11T17:59:18.057Z,68.57
2023-03-11T18:00:17.388Z,69.71
2023-03-11T18:01:17.190Z,68.99
2023-03-11T18:02:17.305Z,69.30
2023-03-11T18:03:17.295Z,69.51
2023-03-11T18:04:17.425Z,68.47
2023-03-11T18:05:18.734Z,68.99
2023-03-11T18:06:17.085Z,68.78
2023-03-11T18:07:17.050Z,69.51
2023-03-11T18:08:17.112Z,68.68
2023-03-11T18:09:17.332Z,68.88
2023-03-11T18:10:17.078Z,68.37
2023-03-11T18:11:19.090Z,68.71
2023-03-11T18:12:17.044Z,68.68
2023-03-11T18:13:17.235Z,69.54
2023-03-11T18:14:17.134Z,69.54
2023-03-11T18:15:16.971Z,69.23
2023-03-11T18:16:17.114Z,68.91
2023-03-11T18:17:18.512Z,69.23
2023-03-11T18:18:17.057Z,69.43
2023-03-11T18:19:17.064Z,69.43
2023-03-11T18:20:17.054Z,69.54
2023-03-11T18:21:16.876Z,70.06
2023-03-11T18:22:17.043Z,69.33
2023-03-11T18:23:16.911Z,68.71
2023-03-11T18:24:17.041Z,68.71
2023-03-11T18:25:17.213Z,69.64
2023-03-11T18:26:16.852Z,70.06
2023-03-11T18:27:16.809Z,69.43
2023-03-11T18:28:16.821Z,69.64
2023-03-11T18:29:16.919Z,69.64
2023-03-11T18:30:17.186Z,69.23
2023-03-11T18:31:16.944Z,69.54
2023-03-11T18:32:16.818Z,70.37
2023-03-11T18:33:16.731Z,70.79
2023-03-11T18:34:16.737Z,70.58
2023-03-11T18:35:16.773Z,69.43
2023-03-11T18:36:16.735Z,70.06
2023-03-11T18:37:16.853Z,70.06
2023-03-11T18:38:16.756Z,70.06
2023-03-11T18:39:16.655Z,69.43
2023-03-11T18:40:16.635Z,70.68
2023-03-11T18:41:16.679Z,69.54
2023-03-11T18:42:16.659Z,69.64
2023-03-11T18:43:16.610Z,69.54
2023-03-11T18:44:16.584Z,69.23
2023-03-11T18:45:16.545Z,70.27
2023-03-11T18:46:16.664Z,70.37
2023-03-11T18:47:16.560Z,69.78
2023-03-11T18:48:16.559Z,70.37
2023-03-11T18:49:16.586Z,70.72
2023-03-11T18:50:16.500Z,71.00
2023-03-11T18:51:16.616Z,71.23
2023-03-11T18:52:16.745Z,71.44
2023-03-11T18:53:16.574Z,70.20
2023-03-11T18:54:16.456Z,70.09
2023-03-11T18:55:16.422Z,70.61
2023-03-11T18:56:16.425Z,71.44
2023-03-11T18:57:16.434Z,71.65
2023-03-11T18:58:16.449Z,72.07
2023-03-11T18:59:18.408Z,70.61
2023-03-11T19:00:16.404Z,70.72
2023-03-11T19:01:16.557Z,71.44
2023-03-11T19:02:16.475Z,71.03
2023-03-11T19:03:16.570Z,70.61
2023-03-11T19:04:16.402Z,70.40
2023-03-11T19:05:16.363Z,70.40
2023-03-11T19:06:16.297Z,71.55
2023-03-11T19:07:16.430Z,71.34
2023-03-11T19:08:16.279Z,71.03
2023-03-11T19:09:16.258Z,70.30
2023-03-11T19:10:18.534Z,70.61
2023-03-11T19:11:16.230Z,70.72
2023-03-11T19:12:16.873Z,71.75
2023-03-11T19:13:16.280Z,71.86
2023-03-11T19:14:16.561Z,71.34
2023-03-11T19:15:16.270Z,72.07
2023-03-11T19:16:16.725Z,71.86
2023-03-11T19:17:16.524Z,71.86
2023-03-11T19:18:16.607Z,71.23
2023-03-11T19:19:16.471Z,71.23
2023-03-11T19:20:16.319Z,72.72
2023-03-11T19:21:16.170Z,71.89
2023-03-11T19:22:16.128Z,72.80
2023-03-11T19:23:16.082Z,73.25
2023-03-11T19:24:17.427Z,72.00
2023-03-11T19:25:16.885Z,71.27
2023-03-11T19:26:16.366Z,71.48
2023-03-11T19:27:16.073Z,72.31
2023-03-11T19:28:15.965Z,72.83
2023-03-11T19:29:16.047Z,72.93
2023-03-11T19:30:15.948Z,72.20
2023-03-11T19:31:16.002Z,72.83
2023-03-11T19:32:16.648Z,73.03
2023-03-11T19:33:15.938Z,73.03
2023-03-11T19:34:16.009Z,73.46
2023-03-11T19:35:15.968Z,72.93
2023-03-11T19:36:16.140Z,73.03
2023-03-11T19:37:15.935Z,72.93
2023-03-11T19:38:15.856Z,72.13
2023-03-11T19:39:15.964Z,73.46
2023-03-11T19:40:15.990Z,73.80
2023-03-11T19:41:16.173Z,73.90
2023-03-11T19:42:15.883Z,74.29
2023-03-11T19:43:16.448Z,74.08
2023-03-11T19:44:15.755Z,73.18
2023-03-11T19:45:15.761Z,74.49
2023-03-11T19:46:16.266Z,74.11
2023-03-11T19:47:16.302Z,73.49
2023-03-11T19:48:15.786Z,73.90
2023-03-11T19:49:16.228Z,74.01
2023-03-11T19:50:15.732Z,73.90
2023-03-11T19:51:15.725Z,74.01
2023-03-11T19:52:15.807Z,73.90
2023-03-11T19:53:15.668Z,74.01
2023-03-11T19:54:16.023Z,74.63
2023-03-11T19:55:15.632Z,74.84
2023-03-11T19:56:15.828Z,74.21
2023-03-11T19:57:15.984Z,74.95
2023-03-11T19:58:15.785Z,75.26
2023-03-11T19:59:15.589Z,74.63
2023-03-11T20:00:15.789Z,74.53
2023-03-11T20:01:15.973Z,75.32
2023-03-11T20:02:15.709Z,73.77
2023-03-11T20:03:16.348Z,73.97
2023-03-11T20:04:15.882Z,74.49
2023-03-11T20:05:16.051Z,74.70
2023-03-11T20:06:15.726Z,74.29
2023-03-11T20:07:15.491Z,74.29
2023-03-11T20:08:15.778Z,75.64
2023-03-11T20:09:15.634Z,75.43
2023-03-11T20:10:17.483Z,75.95
2023-03-11T20:11:15.922Z,74.70
2023-03-11T20:12:15.648Z,73.49
2023-03-11T20:13:15.711Z,73.49
2023-03-11T20:14:15.567Z,74.63
2023-03-11T20:15:16.398Z,74.63
2023-03-11T20:16:18.383Z,75.46
2023-03-11T20:17:15.370Z,74.95
2023-03-11T20:18:15.998Z,74.43
2023-03-11T20:19:15.355Z,74.63
2023-03-11T20:20:15.355Z,75.05
2023-03-11T20:21:15.607Z,74.53
2023-03-11T20:22:15.485Z,74.21
2023-03-11T20:23:15.296Z,73.80
2023-03-11T20:24:15.353Z,75.57
2023-03-11T20:25:15.657Z,75.26
2023-03-11T20:26:15.803Z,74.21
2023-03-11T20:27:15.717Z,75.15
2023-03-11T20:28:15.373Z,75.05
2023-03-11T20:29:15.215Z,74.63
2023-03-11T20:30:16.292Z,73.90
2023-03-11T20:31:15.266Z,75.15
2023-03-11T20:32:15.212Z,73.90
2023-03-11T20:33:15.612Z,73.49
2023-03-11T20:34:15.354Z,73.69
2023-03-11T20:35:15.418Z,74.63
2023-03-11T20:36:15.603Z,75.26
2023-03-11T20:37:15.091Z,75.05
2023-03-11T20:38:15.685Z,74.74
2023-03-11T20:39:15.295Z,75.05
2023-03-11T20:40:15.184Z,74.53
2023-03-11T20:41:16.422Z,74.66
2023-03-11T20:42:15.031Z,74.87
2023-03-11T20:43:15.121Z,75.71
2023-03-11T20:44:15.137Z,76.30
2023-03-11T20:45:15.300Z,75.09
2023-03-11T20:46:15.450Z,74.77
2023-03-11T20:47:15.053Z,75.26
2023-03-11T20:48:14.921Z,75.57
2023-03-11T20:49:14.972Z,75.67
2023-03-11T20:50:15.178Z,74.95
2023-03-11T20:51:14.982Z,74.43
2023-03-11T20:52:14.955Z,74.95
2023-03-11T20:53:14.963Z,73.90
2023-03-11T20:54:14.846Z,74.32
2023-03-11T20:55:14.824Z,74.84
2023-03-11T20:56:14.824Z,74.53
2023-03-11T20:57:14.843Z,74.43
2023-03-11T20:58:14.927Z,74.84
2023-03-11T20:59:14.905Z,74.74
2023-03-11T21:00:14.856Z,75.15
2023-03-11T21:01:14.901Z,75.36
2023-03-11T21:02:14.967Z,74.95
2023-03-11T21:03:15.131Z,74.53
2023-03-11T21:04:16.508Z,75.57
2023-03-11T21:05:14.858Z,74.11
2023-03-11T21:06:14.945Z,74.21
2023-03-11T21:07:14.927Z,74.87
2023-03-11T21:08:14.878Z,74.46
2023-03-11T21:09:14.975Z,75.09
2023-03-11T21:10:14.789Z,75.09
2023-03-11T21:11:14.623Z,75.19
2023-03-11T21:12:14.940Z,75.81
2023-03-11T21:13:14.726Z,75.29
2023-03-11T21:14:14.970Z,76.33
2023-03-11T21:15:14.697Z,75.50
2023-03-11T21:16:14.652Z,75.81
2023-03-11T21:17:14.716Z,75.60
2023-03-11T21:18:14.724Z,74.98
2023-03-11T21:19:14.589Z,74.87
2023-03-11T21:20:14.849Z,75.09
2023-03-11T21:21:14.563Z,75.40
2023-03-11T21:22:14.602Z,75.81
2023-03-11T21:23:14.676Z,75.50
2023-03-11T21:24:14.606Z,75.29
2023-03-11T21:25:14.581Z,75.29
2023-03-11T21:26:14.595Z,75.81
2023-03-11T21:27:14.406Z,75.29
2023-03-11T21:28:14.520Z,76.12
2023-03-11T21:29:14.404Z,76.02
2023-03-11T21:30:14.501Z,74.98
2023-03-11T21:31:14.508Z,74.87
2023-03-11T21:32:14.587Z,75.60
2023-03-11T21:33:14.697Z,74.77
2023-03-11T21:34:14.500Z,74.25
2023-03-11T21:35:14.485Z,74.56
2023-03-11T21:36:14.811Z,75.29
2023-03-11T21:37:14.920Z,74.77
2023-03-11T21:38:14.418Z,75.09
2023-03-11T21:39:14.607Z,74.66
2023-03-11T21:40:14.357Z,75.09
2023-03-11T21:41:14.671Z,75.50
2023-03-11T21:42:14.421Z,75.85
2023-03-11T21:43:14.360Z,76.16
2023-03-11T21:44:14.590Z,76.37
2023-03-11T21:45:14.541Z,76.68
2023-03-11T21:46:14.322Z,76.37
2023-03-11T21:47:14.325Z,76.47
2023-03-11T21:48:14.414Z,75.95
2023-03-11T21:49:14.458Z,75.43
2023-03-11T21:50:14.171Z,75.95
2023-03-11T21:51:14.196Z,76.47
2023-03-11T21:52:14.189Z,76.37
2023-03-11T21:53:14.202Z,76.99
2023-03-11T21:54:14.293Z,76.37
2023-03-11T21:55:14.142Z,77.20
2023-03-11T21:56:14.096Z,77.34
2023-03-11T21:57:15.474Z,77.55
2023-03-11T21:58:14.126Z,77.86
2023-03-11T21:59:14.120Z,77.23
2023-03-11T22:00:14.191Z,77.03
2023-03-11T22:01:14.195Z,77.45
2023-03-11T22:02:14.269Z,77.66
2023-03-11T22:03:14.054Z,77.34
2023-03-11T22:04:14.462Z,76.61
2023-03-11T22:05:13.978Z,77.13
2023-03-11T22:06:14.246Z,76.61
2023-03-11T22:07:13.923Z,76.61
2023-03-11T22:08:14.211Z,77.66
2023-03-11T22:09:14.594Z,77.34
2023-03-11T22:10:14.019Z,76.09
2023-03-11T22:11:13.894Z,75.67
2023-03-11T22:12:14.069Z,75.95
2023-03-11T22:13:13.875Z,76.47
2023-03-11T22:14:14.631Z,76.68
2023-03-11T22:15:14.105Z,76.06
2023-03-11T22:16:14.313Z,75.43
2023-03-11T22:17:14.052Z,75.53
2023-03-11T22:18:13.815Z,76.37
2023-03-11T22:19:14.087Z,76.37
2023-03-11T22:20:13.989Z,76.78
2023-03-11T22:21:13.930Z,76.47
2023-03-11T22:22:13.860Z,76.26
2023-03-11T22:23:13.714Z,76.16
2023-03-11T22:24:13.855Z,76.68
2023-03-11T22:25:13.898Z,76.37
2023-03-11T22:26:13.664Z,77.10
2023-03-11T22:27:13.634Z,77.34
2023-03-11T22:28:13.639Z,75.98
2023-03-11T22:29:13.879Z,76.61
2023-03-11T22:30:13.692Z,77.76
2023-03-11T22:31:13.902Z,77.45
2023-03-11T22:32:14.362Z,77.66
2023-03-11T22:33:13.696Z,77.03
2023-03-11T22:34:13.592Z,77.17
2023-03-11T22:35:13.583Z,77.69
2023-03-11T22:36:13.644Z,78.52
2023-03-11T22:37:13.710Z,78.94
2023-03-11T22:38:13.556Z,78.21
2023-03-11T22:39:13.632Z,78.31
2023-03-11T22:40:13.609Z,78.52
2023-03-11T22:41:13.477Z,78.14
2023-03-11T22:42:13.484Z,78.87
2023-03-11T22:43:13.461Z,79.39
2023-03-11T22:44:13.718Z,78.97
2023-03-11T22:45:13.757Z,78.87
2023-03-11T22:46:13.669Z,79.64
2023-03-11T22:47:13.385Z,79.85
2023-03-11T22:48:13.405Z,81.52
2023-03-11T22:49:13.408Z,80.93
2023-03-11T22:50:13.425Z,79.68
2023-03-11T22:51:13.373Z,79.68
2023-03-11T22:52:13.362Z,79.99
2023-03-11T22:53:13.373Z,80.41
2023-03-11T22:54:13.504Z,80.86
2023-03-11T22:55:13.482Z,81.18
2023-03-11T22:56:13.323Z,81.80
2023-03-11T22:57:13.391Z,81.95
2023-03-11T22:58:13.265Z,82.26
2023-03-11T22:59:13.223Z,82.46
2023-03-11T23:00:13.211Z,82.57
2023-03-11T23:01:13.279Z,82.89
2023-03-11T23:02:13.213Z,82.89
2023-03-11T23:03:13.464Z,82.99
2023-03-11T23:04:13.272Z,82.99
2023-03-11T23:05:13.159Z,83.30
2023-03-11T23:06:13.319Z,82.99
2023-03-11T23:07:13.360Z,82.99
2023-03-11T23:08:13.101Z,83.09
2023-03-11T23:09:13.088Z,83.20
2023-03-11T23:10:13.205Z,82.99
2023-03-11T23:11:13.381Z,82.89
2023-03-11T23:12:13.134Z,83.34
2023-03-11T23:13:13.042Z,83.44
2023-03-11T23:14:13.194Z,83.86
2023-03-11T23:15:13.054Z,83.55
2023-03-11T23:16:13.011Z,83.34
2023-03-11T23:17:13.235Z,82.92
2023-03-11T23:18:13.216Z,83.13
2023-03-11T23:19:13.032Z,83.13
2023-03-11T23:20:13.211Z,82.71
2023-03-11T23:21:13.074Z,83.13
2023-03-11T23:22:13.017Z,82.92
2023-03-11T23:23:13.057Z,83.13
2023-03-11T23:24:13.217Z,83.03
2023-03-11T23:25:13.089Z,83.86
2023-03-11T23:26:12.929Z,83.69
2023-03-11T23:27:13.046Z,83.38
2023-03-11T23:28:12.873Z,83.27
2023-03-11T23:29:12.908Z,82.86
2023-03-11T23:30:12.841Z,83.80
2023-03-11T23:31:12.881Z,83.90
2023-03-11T23:32:12.806Z,83.90
2023-03-11T23:33:13.172Z,84.05
2023-03-11T23:34:12.977Z,84.36
2023-03-11T23:35:12.784Z,84.88
2023-03-11T23:36:12.900Z,84.99
2023-03-11T23:37:12.761Z,84.99
2023-03-11T23:38:12.789Z,85.09
2023-03-11T23:39:12.718Z,84.92
2023-03-11T23:40:12.935Z,84.39
2023-03-11T23:41:12.746Z,84.19
2023-03-11T23:42:24.905Z,84.19
2023-03-11T23:43:12.800Z,84.29
2023-03-11T23:44:12.896Z,83.98
2023-03-11T23:45:12.737Z,84.61
2023-03-11T23:46:12.671Z,84.39